Time;durP1;ratioP1;P1;durP2;ratioP2;P2;SDS_P1;SDS_P2;PMS_P1;PMS_P2;Temp;Humidity;BMP_temperature;BMP_pressure;BME280_temperature;BME280_humidity;BME280_pressure;Samples;Min_cycle;Max_cycle;Signal;HPM_P1;HPM_P2
2023/12/17 00:02:16;;;;;;;14.27;8.50;;;;;;;9.48;100.00;102599.59;5187002;28;20044;-77
2023/12/17 00:04:46;;;;;;;15.38;7.78;;;;;;;9.42;100.00;102603.03;5177759;28;20546;-76
2023/12/17 00:07:17;;;;;;;13.27;8.50;;;;;;;9.36;100.00;102603.06;5181658;28;20033;-76
2023/12/17 00:09:47;;;;;;;14.13;8.68;;;;;;;9.34;100.00;102598.69;5179735;28;20033;-75
2023/12/17 00:12:17;;;;;;;14.32;8.10;;;;;;;9.40;100.00;102596.06;5186585;28;20036;-75
2023/12/17 00:14:47;;;;;;;14.30;8.35;;;;;;;9.58;100.00;102598.69;5182582;28;20045;-75
2023/12/17 00:17:18;;;;;;;14.50;8.30;;;;;;;9.54;100.00;102597.84;5191031;28;20112;-76
2023/12/17 00:19:48;;;;;;;12.75;7.97;;;;;;;9.48;100.00;102592.59;5180740;28;20590;-76
2023/12/17 00:22:18;;;;;;;14.20;7.97;;;;;;;9.52;100.00;102593.50;5183621;28;20044;-78
2023/12/17 00:24:49;;;;;;;15.02;8.52;;;;;;;9.51;100.00;102586.53;5183358;28;20425;-77
2023/12/17 00:27:19;;;;;;;15.27;8.15;;;;;;;9.48;100.00;102587.38;5186346;28;20061;-77
2023/12/17 00:29:49;;;;;;;14.13;7.88;;;;;;;9.42;100.00;102582.16;5182508;28;20033;-77
2023/12/17 00:32:20;;;;;;;12.98;7.68;;;;;;;9.45;100.00;102578.69;5175349;28;20041;-77
2023/12/17 00:34:50;;;;;;;14.43;7.70;;;;;;;9.58;100.00;102583.94;5173477;28;20068;-76
2023/12/17 00:37:20;;;;;;;14.32;8.90;;;;;;;9.56;100.00;102590.88;5178025;28;20406;-76
2023/12/17 00:39:50;;;;;;;12.43;7.50;;;;;;;9.53;100.00;102590.00;5180519;28;20136;-76
2023/12/17 00:42:21;;;;;;;13.82;7.28;;;;;;;9.51;100.00;102596.97;5178512;28;20083;-75
2023/12/17 00:44:51;;;;;;;12.38;7.63;;;;;;;9.47;100.00;102600.44;5177509;28;20462;-76
2023/12/17 00:47:21;;;;;;;12.05;7.63;;;;;;;9.49;100.00;102594.34;5172673;28;20037;-75
2023/12/17 00:49:52;;;;;;;12.07;7.80;;;;;;;9.49;100.00;102596.09;5180971;28;20121;-75
2023/12/17 00:52:22;;;;;;;13.45;7.53;;;;;;;9.54;100.00;102592.63;5178122;28;20477;-74
2023/12/17 00:54:53;;;;;;;12.45;7.88;;;;;;;9.46;100.00;102583.06;5175275;28;20147;-76
2023/12/17 00:57:25;;;;;;;12.13;7.18;;;;;;;9.49;100.00;102580.44;5177506;28;20029;-75
2023/12/17 00:59:56;;;;;;;10.95;7.53;;;;;;;9.50;100.00;102579.56;5174380;28;20037;-76
2023/12/17 01:02:26;;;;;;;14.35;7.97;;;;;;;9.57;100.00;102586.53;5177708;28;20026;-76
2023/12/17 01:04:57;;;;;;;12.52;7.90;;;;;;;9.60;100.00;102596.97;5169534;28;20210;-76
2023/12/17 01:07:28;;;;;;;12.40;7.20;;;;;;;9.51;100.00;102599.56;5175159;28;20034;-77
2023/12/17 01:09:58;;;;;;;12.73;7.90;;;;;;;9.53;100.00;102596.13;5183227;28;20033;-78
2023/12/17 01:12:28;;;;;;;13.90;7.93;;;;;;;9.52;100.00;102599.56;5180511;28;20029;-77
2023/12/17 01:14:59;;;;;;;13.77;7.78;;;;;;;9.56;100.00;102596.09;5176045;28;20048;-77
2023/12/17 01:17:29;;;;;;;11.93;7.40;;;;;;;9.56;100.00;102583.06;5174589;28;20029;-77
2023/12/17 01:19:59;;;;;;;11.43;7.05;;;;;;;9.51;100.00;102590.00;5177406;28;20065;-76
2023/12/17 01:22:29;;;;;;;12.65;7.88;;;;;;;9.52;100.00;102590.88;5181086;28;20029;-77
2023/12/17 01:25:00;;;;;;;13.35;7.60;;;;;;;9.57;100.00;102586.53;5179946;28;20601;-78
2023/12/17 01:27:30;;;;;;;14.25;7.93;;;;;;;9.50;100.00;102593.47;5179390;28;20044;-77
2023/12/17 01:30:00;;;;;;;12.88;8.10;;;;;;;9.50;100.00;102605.66;5183804;28;20045;-76
2023/12/17 01:32:31;;;;;;;12.82;8.18;;;;;;;9.63;100.00;102591.75;5182394;28;20052;-75
2023/12/17 01:35:02;;;;;;;12.13;7.57;;;;;;;9.53;100.00;102597.84;5187269;28;20036;-77
2023/12/17 01:37:33;;;;;;;11.50;7.65;;;;;;;9.49;100.00;102593.50;5173521;23;20047;-75
2023/12/17 01:40:03;;;;;;;12.75;7.97;;;;;;;9.57;100.00;102591.75;5113534;28;20028;-75
2023/12/17 01:42:34;;;;;;;15.35;8.38;;;;;;;9.55;100.00;102598.72;5112991;28;20505;-75
2023/12/17 01:45:05;;;;;;;12.60;8.15;;;;;;;9.61;100.00;102599.59;5109627;28;20028;-75
2023/12/17 01:47:36;;;;;;;16.88;8.95;;;;;;;9.62;100.00;102603.06;5112161;28;20034;-75
2023/12/17 01:50:07;;;;;;;16.33;9.40;;;;;;;9.62;100.00;102584.81;5108351;29;20035;-75
2023/12/17 01:52:39;;;;;;;15.27;8.82;;;;;;;9.54;100.00;102587.41;5110597;29;20046;-75
2023/12/17 01:55:09;;;;;;;13.68;8.65;;;;;;;9.56;100.00;102582.16;5101658;29;20027;-75
2023/12/17 01:57:40;;;;;;;15.48;8.70;;;;;;;9.56;100.00;102582.16;5103445;29;20042;-75
2023/12/17 02:00:11;;;;;;;12.40;8.40;;;;;;;9.52;100.00;102588.28;5097807;29;20445;-75
2023/12/17 02:02:43;;;;;;;14.13;9.10;;;;;;;9.54;100.00;102591.75;5101725;29;20377;-75
2023/12/17 02:05:13;;;;;;;13.93;8.93;;;;;;;9.47;100.00;102601.31;5102049;28;20043;-75
2023/12/17 02:07:43;;;;;;;15.82;8.30;;;;;;;9.49;100.00;102593.50;5104427;28;20039;-75
2023/12/17 02:10:14;;;;;;;16.80;8.27;;;;;;;9.63;100.00;102584.78;5104514;28;20035;-75
2023/12/17 02:12:44;;;;;;;12.50;7.97;;;;;;;9.51;100.00;102586.53;5106160;28;20377;-75
2023/12/17 02:15:15;;;;;;;13.32;8.13;;;;;;;9.52;100.00;102598.72;5108434;28;20058;-75
2023/12/17 02:17:45;;;;;;;14.05;8.45;;;;;;;9.57;100.00;102592.63;5106924;28;20031;-75
2023/12/17 02:20:15;;;;;;;13.95;8.77;;;;;;;9.58;100.00;102583.94;5108450;28;20032;-75
2023/12/17 02:22:53;;;;;;;14.63;8.15;;;;;;;9.56;100.00;102582.16;5109801;28;20027;-75
2023/12/17 02:25:24;;;;;;;18.08;8.75;;;;;;;9.54;100.00;102594.34;5104786;29;20488;-75
2023/12/17 02:27:58;;;;;;;12.52;7.78;;;;;;;9.58;100.00;102593.47;5103439;28;20031;-75
2023/12/17 02:30:28;;;;;;;11.73;7.82;;;;;;;9.54;100.00;102589.13;5106724;29;20107;-76
2023/12/17 02:32:58;;;;;;;13.18;7.97;;;;;;;9.55;100.00;102599.59;5108599;28;20032;-76
2023/12/17 02:35:29;;;;;;;15.40;8.02;;;;;;;9.56;100.00;102603.06;5111601;29;20496;-75
2023/12/17 02:37:59;;;;;;;12.35;7.15;;;;;;;9.58;100.00;102593.47;5105149;28;20035;-76
2023/12/17 02:40:29;;;;;;;13.07;7.00;;;;;;;9.50;100.00;102596.09;5107548;29;20725;-75
2023/12/17 02:43:00;;;;;;;11.90;7.03;;;;;;;9.55;100.00;102598.72;5106754;28;20072;-75
2023/12/17 02:45:30;;;;;;;13.65;7.25;;;;;;;9.60;100.00;102599.56;5104335;29;20031;-75
2023/12/17 02:48:00;;;;;;;12.48;7.15;;;;;;;9.54;100.00;102602.19;5105946;28;20058;-76
2023/12/17 02:50:30;;;;;;;13.52;7.47;;;;;;;9.51;100.00;102596.97;5109359;29;20046;-75
2023/12/17 02:53:01;;;;;;;11.48;6.70;;;;;;;9.58;100.00;102583.03;5105740;28;20031;-74
2023/12/17 02:55:31;;;;;;;10.45;6.50;;;;;;;9.59;100.00;102579.56;5107837;29;20027;-75
2023/12/17 02:58:05;;;;;;;11.50;6.15;;;;;;;9.54;100.00;102568.25;5105638;29;20031;-75
2023/12/17 03:00:36;;;;;;;10.50;5.95;;;;;;;9.45;100.00;102563.03;5111170;29;20437;-75
2023/12/17 03:03:06;;;;;;;9.70;6.05;;;;;;;9.44;100.00;102561.28;5107150;29;20043;-75
2023/12/17 03:05:36;;;;;;;10.68;6.20;;;;;;;9.53;100.00;102548.25;5101673;29;20039;-75
2023/12/17 03:08:07;;;;;;;10.27;5.97;;;;;;;9.54;100.00;102549.97;5107589;29;20035;-75
2023/12/17 03:10:42;;;;;;;11.18;6.30;;;;;;;9.53;100.00;102558.69;5109864;29;20247;-75
2023/12/17 03:13:12;;;;;;;9.07;5.65;;;;;;;9.54;100.00;102561.31;5102924;29;20055;-75
2023/12/17 03:15:43;;;;;;;8.57;5.47;;;;;;;9.45;100.00;102552.59;5108553;28;20063;-75
2023/12/17 03:18:14;;;;;;;8.50;5.38;;;;;;;9.58;100.00;102559.53;5107545;29;20035;-75
2023/12/17 03:20:45;;;;;;;9.35;5.65;;;;;;;9.57;100.00;102549.97;5109066;28;20108;-75
2023/12/17 03:23:15;;;;;;;7.95;5.10;;;;;;;9.50;100.00;102549.09;5108717;28;20027;-75
2023/12/17 03:25:46;;;;;;;8.70;5.18;;;;;;;9.53;100.00;102554.34;5109432;28;20084;-75
2023/12/17 03:28:16;;;;;;;7.38;4.68;;;;;;;9.55;100.00;102549.09;5105367;28;20045;-75
2023/12/17 03:30:46;;;;;;;11.10;4.60;;;;;;;9.49;100.00;102541.28;5109181;28;20035;-75
2023/12/17 03:33:17;;;;;;;6.85;4.47;;;;;;;9.49;100.00;102541.28;5110778;28;20424;-75
2023/12/17 03:35:47;;;;;;;6.03;4.28;;;;;;;9.54;100.00;102529.09;5108771;28;20082;-75
2023/12/17 03:38:18;;;;;;;6.75;4.18;;;;;;;9.56;100.00;102532.56;5108723;28;20066;-75
2023/12/17 03:40:48;;;;;;;7.72;4.90;;;;;;;9.46;100.00;102530.84;5109325;28;20037;-74
2023/12/17 03:43:18;;;;;;;7.35;4.25;;;;;;;9.53;100.00;102530.84;5106913;29;20408;-75
2023/12/17 03:45:49;;;;;;;6.60;4.00;;;;;;;9.55;100.00;102525.63;5107510;29;20040;-75
2023/12/17 03:48:19;;;;;;;7.07;4.13;;;;;;;9.54;100.00;102523.88;5107463;29;20539;-75
2023/12/17 03:50:49;;;;;;;7.80;4.07;;;;;;;9.54;100.00;102521.25;5110790;28;20060;-74
2023/12/17 03:53:19;;;;;;;6.90;4.10;;;;;;;9.51;100.00;102513.44;5116956;28;20491;-75
2023/12/17 03:55:50;;;;;;;7.22;4.18;;;;;;;9.60;100.00;102527.34;5113957;28;20036;-75
2023/12/17 03:58:20;;;;;;;7.78;4.10;;;;;;;9.56;100.00;102517.78;5114586;28;20117;-75
2023/12/17 04:00:50;;;;;;;6.95;3.85;;;;;;;9.47;100.00;102517.78;5116722;28;20089;-75
2023/12/17 04:03:21;;;;;;;5.68;3.85;;;;;;;9.51;100.00;102513.44;5117428;28;20555;-75
2023/12/17 04:05:51;;;;;;;6.43;3.80;;;;;;;9.55;100.00;102521.28;5117377;28;20043;-75
2023/12/17 04:08:21;;;;;;;6.28;3.83;;;;;;;9.47;100.00;102511.72;5117460;28;20499;-75
2023/12/17 04:10:52;;;;;;;6.45;3.92;;;;;;;9.48;100.00;102513.44;5118195;28;20043;-74
2023/12/17 04:13:22;;;;;;;7.13;4.03;;;;;;;9.53;100.00;102511.69;5116829;28;20513;-75
2023/12/17 04:15:52;;;;;;;5.70;3.63;;;;;;;9.52;100.00;102515.19;5115539;28;20493;-75
2023/12/17 04:18:22;;;;;;;6.38;3.80;;;;;;;9.51;100.00;102522.13;5117529;28;20110;-75
2023/12/17 04:20:53;;;;;;;6.72;4.03;;;;;;;9.52;100.00;102520.41;5117265;28;20032;-74
2023/12/17 04:23:23;;;;;;;5.97;3.47;;;;;;;9.54;100.00;102519.53;5114887;28;20035;-75
2023/12/17 04:25:53;;;;;;;6.72;4.10;;;;;;;9.54;100.00;102519.53;5117023;28;20031;-75
2023/12/17 04:28:24;;;;;;;5.30;3.80;;;;;;;9.47;100.00;102509.09;5118070;28;21037;-75
2023/12/17 04:30:54;;;;;;;5.75;3.45;;;;;;;9.42;100.00;102509.09;5118358;28;20473;-75
2023/12/17 04:33:24;;;;;;;6.72;3.70;;;;;;;9.42;100.00;102500.38;5118074;28;20825;-75
2023/12/17 04:35:54;;;;;;;6.10;3.90;;;;;;;9.51;100.00;102509.06;5105845;28;20617;-75
2023/12/17 04:38:25;;;;;;;6.07;3.83;;;;;;;9.54;100.00;102513.44;5116423;28;20522;-75
2023/12/17 04:40:55;;;;;;;7.82;3.70;;;;;;;9.49;100.00;102509.97;5118634;28;20477;-75
2023/12/17 04:43:26;;;;;;;5.70;3.70;;;;;;;9.51;100.00;102503.84;5117608;28;20051;-75
2023/12/17 04:45:56;;;;;;;5.72;3.63;;;;;;;9.54;100.00;102505.59;5113528;28;20038;-75
2023/12/17 04:48:26;;;;;;;6.65;3.72;;;;;;;9.56;100.00;102512.56;5119182;28;20039;-75
2023/12/17 04:50:57;;;;;;;5.72;3.30;;;;;;;9.55;100.00;102515.19;5113701;28;20028;-75
2023/12/17 04:53:27;;;;;;;5.60;3.58;;;;;;;9.60;100.00;102518.63;5119710;29;20032;-75
2023/12/17 04:55:57;;;;;;;5.82;3.70;;;;;;;9.56;100.00;102511.69;5111761;29;20183;-75
2023/12/17 04:58:28;;;;;;;5.53;3.33;;;;;;;9.50;100.00;102517.78;5117064;28;20121;-75
2023/12/17 05:00:59;;;;;;;6.65;3.90;;;;;;;9.49;100.00;102518.66;5117721;28;20032;-75
2023/12/17 05:03:29;;;;;;;6.40;3.70;;;;;;;9.48;100.00;102522.13;5114509;29;20050;-74
2023/12/17 05:05:59;;;;;;;6.40;3.88;;;;;;;9.51;100.00;102516.06;5110656;28;20031;-75
2023/12/17 05:08:30;;;;;;;5.57;3.63;;;;;;;9.46;100.00;102526.50;5112971;28;20078;-75
2023/12/17 05:11:00;;;;;;;5.50;3.80;;;;;;;9.42;100.00;102513.44;5115558;28;20493;-75
2023/12/17 05:13:30;;;;;;;6.55;3.70;;;;;;;9.49;100.00;102530.84;5113762;28;20027;-75
2023/12/17 05:16:00;;;;;;;6.57;4.45;;;;;;;9.44;100.00;102530.84;5110492;28;20023;-75
2023/12/17 05:18:31;;;;;;;5.70;3.67;;;;;;;9.45;100.00;102529.13;5112973;29;20031;-75
2023/12/17 05:21:01;;;;;;;7.13;4.05;;;;;;;9.38;100.00;102527.34;5109344;29;20404;-75
2023/12/17 05:23:31;;;;;;;6.25;3.75;;;;;;;9.39;100.00;102513.44;5102110;28;20115;-75
2023/12/17 05:26:02;;;;;;;7.03;4.28;;;;;;;9.49;100.00;102520.41;5109380;29;20038;-75
2023/12/17 05:28:32;;;;;;;7.63;4.28;;;;;;;9.51;100.00;102522.13;5101378;28;20027;-75
2023/12/17 05:31:02;;;;;;;6.43;4.30;;;;;;;9.53;100.00;102522.13;5103819;29;20051;-75
2023/12/17 05:33:33;;;;;;;6.82;4.65;;;;;;;9.52;100.00;102529.09;5102037;29;20019;-75
2023/12/17 05:36:04;;;;;;;5.63;4.10;;;;;;;9.46;100.00;102536.06;5102349;29;20035;-75
2023/12/17 05:38:34;;;;;;;5.97;3.90;;;;;;;9.48;100.00;102529.09;5097274;29;20107;-75
2023/12/17 05:41:05;;;;;;;6.13;3.83;;;;;;;9.55;100.00;102525.63;5113766;29;20122;-75
2023/12/17 05:43:35;;;;;;;6.80;4.05;;;;;;;9.57;100.00;102534.31;5100440;29;20040;-75
2023/12/17 05:46:06;;;;;;;5.95;4.07;;;;;;;9.58;100.00;102530.81;5105254;29;20094;-75
2023/12/17 05:48:36;;;;;;;6.57;4.00;;;;;;;9.58;100.00;102536.06;5102027;29;20397;-75
2023/12/17 05:51:07;;;;;;;6.55;4.15;;;;;;;9.47;100.00;102538.66;5106143;29;20031;-75
2023/12/17 05:53:38;;;;;;;5.80;3.72;;;;;;;9.57;100.00;102529.97;5106949;29;20035;-75
2023/12/17 05:56:08;;;;;;;6.72;4.15;;;;;;;9.42;100.00;102534.31;5104287;29;20094;-75
2023/12/17 05:58:39;;;;;;;5.63;3.80;;;;;;;9.49;100.00;102517.78;5104661;29;20091;-75
2023/12/17 06:01:09;;;;;;;5.82;3.83;;;;;;;9.47;100.00;102532.59;5105528;29;20409;-75
2023/12/17 06:03:39;;;;;;;6.10;3.92;;;;;;;9.45;100.00;102523.91;5104599;29;20042;-75
2023/12/17 06:06:10;;;;;;;6.40;3.90;;;;;;;9.43;100.00;102523.00;5098832;29;20484;-75
2023/12/17 06:08:40;;;;;;;5.93;3.92;;;;;;;9.53;100.00;102512.59;5098900;29;20226;-75
2023/12/17 06:11:16;;;;;;;6.35;4.15;;;;;;;9.52;100.00;102520.41;5104874;28;20050;-75
2023/12/17 06:13:46;;;;;;;5.95;3.80;;;;;;;9.51;100.00;102523.88;5104933;28;20027;-74
2023/12/17 06:16:17;;;;;;;8.52;4.40;;;;;;;9.55;100.00;102526.50;5103386;28;20033;-75
2023/12/17 06:18:49;;;;;;;6.97;4.40;;;;;;;9.65;100.00;102530.81;5102774;29;20449;-75
2023/12/17 06:21:21;;;;;;;6.70;4.13;;;;;;;9.58;100.00;102520.38;5107187;28;20019;-76
2023/12/17 06:23:57;;;;;;;6.82;4.13;;;;;;;9.65;100.00;102520.38;5099043;29;20513;-75
2023/12/17 06:26:27;;;;;;;7.07;4.50;;;;;;;9.56;100.00;102525.63;5108951;28;20035;-75
2023/12/17 06:28:57;;;;;;;8.18;4.38;;;;;;;9.49;100.00;102531.69;5108190;28;20493;-75
2023/12/17 06:31:28;;;;;;;5.43;3.75;;;;;;;9.53;100.00;102543.91;5102215;28;20508;-75
2023/12/17 06:33:58;;;;;;;5.70;3.78;;;;;;;9.51;100.00;102527.34;5108989;29;20437;-74
2023/12/17 06:36:28;;;;;;;6.47;4.07;;;;;;;9.56;100.00;102532.56;5104332;28;20019;-75
2023/12/17 06:38:59;;;;;;;6.88;4.15;;;;;;;9.49;100.00;102536.06;5107299;29;20031;-75
2023/12/17 06:41:29;;;;;;;6.20;4.10;;;;;;;9.53;100.00;102543.03;5096816;29;20031;-75
2023/12/17 06:43:59;;;;;;;6.88;4.18;;;;;;;9.54;100.00;102536.94;5107374;29;20552;-75
2023/12/17 06:46:30;;;;;;;6.03;3.90;;;;;;;9.52;100.00;102547.34;5100847;29;20505;-75
2023/12/17 06:49:00;;;;;;;6.57;4.03;;;;;;;9.54;100.00;102544.75;5101423;29;20344;-75
2023/12/17 06:51:30;;;;;;;7.10;4.40;;;;;;;9.55;100.00;102547.38;5097815;29;20031;-75
2023/12/17 06:54:01;;;;;;;8.18;4.15;;;;;;;9.55;100.00;102542.16;5098092;29;20385;-75
2023/12/17 06:56:31;;;;;;;6.20;4.20;;;;;;;9.54;100.00;102544.75;5097441;29;20019;-75
2023/12/17 06:59:02;;;;;;;7.15;4.72;;;;;;;9.59;100.00;102556.06;5097869;29;20038;-75
2023/12/17 07:01:33;;;;;;;6.38;4.60;;;;;;;9.56;100.00;102537.78;5094897;29;20553;-74
2023/12/17 07:04:03;;;;;;;6.93;4.63;;;;;;;9.58;100.00;102543.88;5092323;29;20304;-75
2023/12/17 07:06:33;;;;;;;6.53;4.10;;;;;;;9.55;100.00;102552.59;5100445;29;20185;-75
2023/12/17 07:09:03;;;;;;;6.20;4.00;;;;;;;9.58;100.00;102557.81;5098863;29;20030;-75
2023/12/17 07:11:34;;;;;;;7.07;4.78;;;;;;;9.58;100.00;102556.94;5102016;29;20094;-75
2023/12/17 07:14:04;;;;;;;7.57;4.47;;;;;;;9.54;100.00;102552.59;5101555;29;20424;-75
2023/12/17 07:16:35;;;;;;;7.90;4.30;;;;;;;9.52;100.00;102562.16;5097162;29;20453;-75
2023/12/17 07:19:05;;;;;;;6.35;4.13;;;;;;;9.54;100.00;102553.47;5097899;29;20056;-75
2023/12/17 07:21:36;;;;;;;6.50;3.97;;;;;;;9.55;100.00;102551.72;5098699;29;20058;-74
2023/12/17 07:24:06;;;;;;;8.27;4.10;;;;;;;9.57;100.00;102549.97;5097607;28;20393;-75
2023/12/17 07:26:36;;;;;;;5.93;4.20;;;;;;;9.50;100.00;102543.03;5100721;29;20565;-75
2023/12/17 07:29:07;;;;;;;5.80;4.07;;;;;;;9.46;100.00;102544.75;5099356;29;20118;-75
2023/12/17 07:31:38;;;;;;;5.70;3.80;;;;;;;9.41;100.00;102554.34;5099869;29;20031;-75
2023/12/17 07:34:08;;;;;;;8.80;4.20;;;;;;;9.47;100.00;102553.47;5099008;29;20050;-75
2023/12/17 07:36:39;;;;;;;10.20;5.40;;;;;;;9.46;100.00;102557.81;5099114;29;20031;-73
2023/12/17 07:39:09;;;;;;;6.47;4.05;;;;;;;9.41;100.00;102543.91;5099960;29;20023;-75
2023/12/17 07:41:39;;;;;;;8.02;3.95;;;;;;;9.45;100.00;102550.00;5100601;29;20031;-75
2023/12/17 07:44:10;;;;;;;6.63;4.22;;;;;;;9.52;100.00;102543.91;5105685;29;20086;-74
2023/12/17 07:46:40;;;;;;;6.90;4.10;;;;;;;9.54;100.00;102549.97;5102560;29;20535;-75
2023/12/17 07:49:11;;;;;;;7.10;4.30;;;;;;;9.44;100.00;102550.84;5110332;29;20123;-75
2023/12/17 07:51:41;;;;;;;6.75;4.25;;;;;;;9.46;100.00;102557.81;5105718;28;20035;-75
2023/12/17 07:54:11;;;;;;;7.53;4.30;;;;;;;9.50;100.00;102559.53;5110080;28;20031;-75
2023/12/17 07:56:42;;;;;;;6.75;4.30;;;;;;;9.49;100.00;102563.03;5104122;28;20029;-75
2023/12/17 07:59:12;;;;;;;7.00;4.18;;;;;;;9.59;100.00;102551.72;5105538;28;20388;-75
2023/12/17 08:01:42;;;;;;;6.35;4.50;;;;;;;9.64;100.00;102549.97;5105891;28;20043;-75
2023/12/17 08:04:13;;;;;;;6.95;4.60;;;;;;;9.63;100.00;102539.56;5112192;28;20539;-75
2023/12/17 08:06:43;;;;;;;6.90;4.32;;;;;;;9.62;100.00;102541.28;5107450;29;20041;-75
2023/12/17 08:09:15;;;;;;;8.52;4.57;;;;;;;9.59;100.00;102537.78;5109369;28;20078;-73
2023/12/17 08:11:46;;;;;;;7.93;4.28;;;;;;;9.58;100.00;102538.66;5099547;29;20446;-75
2023/12/17 08:14:16;;;;;;;6.60;4.18;;;;;;;9.60;100.00;102539.53;5110667;28;20063;-75
2023/12/17 08:16:46;;;;;;;8.02;4.82;;;;;;;9.61;100.00;102549.09;5107492;28;20497;-75
2023/12/17 08:19:17;;;;;;;7.68;4.60;;;;;;;9.57;100.00;102550.84;5110019;28;20027;-75
2023/12/17 08:21:47;;;;;;;8.05;4.53;;;;;;;9.63;100.00;102548.25;5109116;28;20114;-75
2023/12/17 08:24:17;;;;;;;6.93;4.30;;;;;;;9.64;100.00;102562.19;5109654;28;20046;-75
2023/12/17 08:26:47;;;;;;;7.20;4.75;;;;;;;9.65;100.00;102556.09;5100263;29;20036;-75
2023/12/17 08:29:18;;;;;;;7.47;4.85;;;;;;;9.64;100.00;102556.97;5106355;28;20560;-75
2023/12/17 08:31:48;;;;;;;9.10;4.32;;;;;;;9.66;100.00;102537.78;5107810;28;20024;-75
2023/12/17 08:34:18;;;;;;;7.40;5.03;;;;;;;9.64;100.00;102552.59;5108795;29;20404;-74
2023/12/17 08:36:49;;;;;;;7.82;4.65;;;;;;;9.73;100.00;102550.00;5110154;28;20028;-75
2023/12/17 08:39:20;;;;;;;7.70;4.78;;;;;;;9.74;100.00;102556.06;5115326;28;20035;-75
2023/12/17 08:41:51;;;;;;;6.65;4.30;;;;;;;9.81;100.00;102555.22;5111156;28;20037;-75
2023/12/17 08:44:23;;;;;;;8.57;5.07;;;;;;;9.81;100.00;102556.06;5113240;28;20363;-75
2023/12/17 08:46:53;;;;;;;8.00;4.57;;;;;;;9.70;100.00;102552.59;5108267;28;20450;-75
2023/12/17 08:49:23;;;;;;;8.73;4.93;;;;;;;9.76;100.00;102546.47;5111680;28;20312;-75
2023/12/17 08:51:54;;;;;;;7.30;4.65;;;;;;;9.85;100.00;102554.31;5113900;28;20024;-75
2023/12/17 08:54:24;;;;;;;7.35;4.75;;;;;;;9.81;100.00;102549.97;5109003;28;20059;-75
2023/12/17 08:56:54;;;;;;;8.48;5.00;;;;;;;9.84;100.00;102539.53;5109171;28;20028;-75
2023/12/17 08:59:25;;;;;;;7.88;4.78;;;;;;;9.79;100.00;102546.50;5114304;29;20583;-75
2023/12/17 09:01:55;;;;;;;8.25;4.75;;;;;;;9.89;100.00;102548.22;5104045;28;20066;-75
2023/12/17 09:04:25;;;;;;;7.60;5.00;;;;;;;9.94;100.00;102551.69;5114452;28;20027;-75
2023/12/17 09:06:55;;;;;;;8.43;4.90;;;;;;;9.91;100.00;102546.47;5092244;28;22179;-75
2023/12/17 09:09:26;;;;;;;8.35;5.10;;;;;;;9.88;100.00;102543.88;5108018;29;20085;-75
2023/12/17 09:11:57;;;;;;;7.38;4.35;;;;;;;9.87;100.00;102544.75;5104566;29;20417;-75
2023/12/17 09:14:27;;;;;;;8.35;4.55;;;;;;;9.83;100.00;102551.69;5113140;28;20031;-75
2023/12/17 09:16:58;;;;;;;8.00;4.93;;;;;;;9.81;100.00;102549.97;5114896;28;20028;-75
2023/12/17 09:19:28;;;;;;;7.90;5.00;;;;;;;9.84;100.00;102539.53;5114033;28;20043;-75
2023/12/17 09:21:58;;;;;;;9.52;5.25;;;;;;;9.91;100.00;102546.47;5113183;28;20095;-75
2023/12/17 09:24:29;;;;;;;7.80;4.72;;;;;;;9.91;100.00;102541.25;5112535;29;20197;-75
2023/12/17 09:27:00;;;;;;;8.65;5.55;;;;;;;9.96;100.00;102532.53;5109024;29;20023;-76
2023/12/17 09:29:31;;;;;;;8.85;5.22;;;;;;;10.01;100.00;102543.88;5113490;29;20046;-75
2023/12/17 09:32:01;;;;;;;7.43;4.55;;;;;;;9.99;100.00;102535.13;5114286;28;20030;-75
2023/12/17 09:34:31;;;;;;;7.03;4.30;;;;;;;10.01;100.00;102538.66;5116203;28;20035;-75
2023/12/17 09:37:02;;;;;;;7.07;4.57;;;;;;;10.09;100.00;102534.28;5062983;28;1163193;-75
2023/12/17 09:39:32;;;;;;;8.70;4.40;;;;;;;9.95;100.00;102535.13;5102406;29;20091;-74
2023/12/17 09:42:03;;;;;;;7.20;3.95;;;;;;;10.04;100.00;102529.94;5095060;29;20170;-75
2023/12/17 09:44:34;;;;;;;6.05;3.75;;;;;;;10.05;100.00;102524.72;5105410;29;20035;-75
2023/12/17 09:47:04;;;;;;;5.13;3.50;;;;;;;10.10;100.00;102519.47;5114739;28;20030;-75
2023/12/17 09:49:35;;;;;;;6.15;3.97;;;;;;;10.08;100.00;102532.56;5114901;28;20210;-75
2023/12/17 09:52:07;;;;;;;5.88;3.67;;;;;;;10.15;100.00;102534.25;5110689;29;20500;-75
2023/12/17 09:54:38;;;;;;;6.95;3.97;;;;;;;10.28;100.00;102537.72;5112874;29;20126;-74
2023/12/17 09:57:10;;;;;;;6.07;4.00;;;;;;;10.28;100.00;102538.59;5106375;29;20564;-75
2023/12/17 09:59:42;;;;;;;5.97;3.63;;;;;;;10.39;100.00;102535.94;5107630;29;20543;-75
2023/12/17 10:02:15;;;;;;;5.88;3.63;;;;;;;10.49;100.00;102537.66;5102336;28;20040;-75
2023/12/17 10:04:45;;;;;;;7.55;4.32;;;;;;;10.50;99.55;102526.31;5111658;28;20046;-74
2023/12/17 10:07:16;;;;;;;8.93;4.55;;;;;;;10.69;99.16;102527.97;5112492;28;20031;-75
2023/12/17 10:09:46;;;;;;;5.25;3.10;;;;;;;10.56;97.84;102524.56;5103656;29;20036;-75
2023/12/17 10:12:17;;;;;;;4.65;2.97;;;;;;;10.64;97.84;102521.88;5102357;28;20557;-75
2023/12/17 10:14:47;;;;;;;5.30;3.20;;;;;;;10.62;97.65;102523.63;5110848;28;20047;-74
2023/12/17 10:17:18;;;;;;;4.57;2.58;;;;;;;10.75;96.52;102509.63;5113310;28;20030;-75
2023/12/17 10:19:51;;;;;;;6.90;2.72;;;;;;;10.74;97.00;102503.53;5114924;28;21191;-75
2023/12/17 10:22:21;;;;;;;4.38;2.80;;;;;;;10.57;96.89;102507.09;5108174;29;20027;-75
2023/12/17 10:24:51;;;;;;;3.97;2.40;;;;;;;10.47;96.70;102502.78;5115219;28;20134;-75
2023/12/17 10:27:22;;;;;;;4.15;2.47;;;;;;;10.63;96.82;102496.59;5111596;28;20119;-75
2023/12/17 10:29:53;;;;;;;4.70;2.70;;;;;;;10.52;96.67;102490.59;5113748;29;20517;-74
2023/12/17 10:32:25;;;;;;;4.22;2.25;;;;;;;10.65;97.20;102487.03;5109287;28;20035;-75
2023/12/17 10:34:55;;;;;;;5.50;2.72;;;;;;;10.58;97.24;102482.69;5114146;28;20074;-73
2023/12/17 10:37:27;;;;;;;5.10;3.00;;;;;;;10.75;97.01;102480.84;5108310;28;20031;-75
2023/12/17 10:39:58;;;;;;;4.88;2.53;;;;;;;10.73;96.13;102480.88;5104694;28;20125;-73
2023/12/17 10:42:30;;;;;;;3.92;2.38;;;;;;;10.72;93.94;102471.28;5102089;29;20024;-75
2023/12/17 10:45:02;;;;;;;5.97;2.97;;;;;;;10.75;94.06;102478.25;5112084;28;20047;-75
2023/12/17 10:47:33;;;;;;;4.47;2.70;;;;;;;10.85;93.37;102477.31;5102436;29;20461;-75
2023/12/17 10:50:04;;;;;;;5.88;3.20;;;;;;;10.87;93.62;102472.94;5115923;28;20046;-75
2023/12/17 10:52:35;;;;;;;5.40;2.80;;;;;;;10.93;93.79;102471.16;5107798;29;20038;-75
2023/12/17 10:55:06;;;;;;;5.05;2.45;;;;;;;11.02;92.97;102469.34;5094781;28;20497;-75
2023/12/17 10:57:39;;;;;;;4.00;2.22;;;;;;;11.02;92.28;102456.25;5100760;29;20042;-75
2023/12/17 11:00:11;;;;;;;5.80;3.05;;;;;;;10.95;91.63;102458.94;5088359;28;20040;-75
2023/12/17 11:02:43;;;;;;;4.30;2.10;;;;;;;11.02;91.76;102451.03;5091786;29;20385;-73
2023/12/17 11:05:14;;;;;;;4.30;2.38;;;;;;;11.01;92.15;102453.66;5105300;28;20054;-75
2023/12/17 11:07:44;;;;;;;5.30;2.63;;;;;;;10.89;92.12;102451.09;5105842;28;20393;-76
2023/12/17 11:10:17;;;;;;;6.00;2.88;;;;;;;10.93;91.05;102438.88;5100250;28;20047;-74
2023/12/17 11:12:48;;;;;;;4.10;2.50;;;;;;;10.78;91.12;102446.84;5086056;28;20325;-75
2023/12/17 11:15:22;;;;;;;4.32;2.50;;;;;;;10.68;91.58;102437.31;5090482;29;20565;-74
2023/12/17 11:17:53;;;;;;;3.28;1.98;;;;;;;10.73;91.32;102431.19;5089061;29;20028;-73
2023/12/17 11:20:40;;;;;;;5.15;2.67;;;;;;;10.50;92.07;102429.59;5088168;29;20084;-74
2023/12/17 11:23:14;;;;;;;5.78;2.75;;;;;;;10.52;92.40;102438.28;5089461;29;20038;-75
2023/12/17 11:25:47;;;;;;;4.38;2.45;;;;;;;10.38;91.83;102440.97;5088564;29;20312;-75
2023/12/17 11:28:25;;;;;;;5.60;2.70;;;;;;;10.39;92.28;102428.78;5091896;29;20115;-75
2023/12/17 11:30:56;;;;;;;4.25;2.40;;;;;;;10.44;92.18;102434.84;5093107;29;20424;-73
2023/12/17 11:33:27;;;;;;;4.97;2.55;;;;;;;10.33;93.07;102426.19;5101611;29;20092;-74
2023/12/17 11:35:58;;;;;;;4.05;2.13;;;;;;;10.26;93.17;102429.69;5102761;28;20027;-73
2023/12/17 11:38:29;;;;;;;5.68;2.58;;;;;;;10.32;93.15;102425.31;5096992;29;20126;-74